createdAt,value
2019-03-17T00:00:33.501Z,55.33
2019-03-17T00:03:02.700Z,55.10
2019-03-17T00:05:31.914Z,54.89
2019-03-17T00:08:01.101Z,55.02
2019-03-17T00:10:30.286Z,55.34
2019-03-17T00:12:59.525Z,55.26
2019-03-17T00:15:28.867Z,55.00
2019-03-17T00:17:58.060Z,55.12
2019-03-17T00:20:27.287Z,55.34
2019-03-17T00:22:56.570Z,55.13
2019-03-17T00:25:25.760Z,55.36
2019-03-17T00:27:54.989Z,55.21
2019-03-17T00:30:26.632Z,55.05
2019-03-17T00:33:00.741Z,55.18
2019-03-17T00:35:31.623Z,55.07
2019-03-17T00:38:00.943Z,55.08
2019-03-17T00:40:30.181Z,54.73
2019-03-17T00:42:59.370Z,54.94
2019-03-17T00:45:28.537Z,54.85
2019-03-17T00:47:57.818Z,54.89
2019-03-17T00:50:27.002Z,55.03
2019-03-17T00:52:56.215Z,55.17
2019-03-17T00:55:25.402Z,55.37
2019-03-17T00:57:54.631Z,55.22
2019-03-17T01:00:23.876Z,54.75
2019-03-17T01:02:53.058Z,54.91
2019-03-17T01:05:22.568Z,54.98
2019-03-17T01:07:52.078Z,54.94
2019-03-17T01:10:21.274Z,54.96
2019-03-17T01:12:50.465Z,55.23
2019-03-17T01:15:19.753Z,54.68
2019-03-17T01:17:49.020Z,54.73
2019-03-17T01:20:18.283Z,54.66
2019-03-17T01:22:47.460Z,55.03
2019-03-17T01:25:16.646Z,54.65
2019-03-17T01:27:46.054Z,54.75
2019-03-17T01:30:16.180Z,54.42
2019-03-17T01:32:45.332Z,54.59
2019-03-17T01:35:16.905Z,54.79
2019-03-17T01:37:46.046Z,54.67
2019-03-17T01:40:15.520Z,54.78
2019-03-17T01:42:44.793Z,54.81
2019-03-17T01:45:13.960Z,54.75
2019-03-17T01:47:43.367Z,55.02
2019-03-17T01:50:12.584Z,55.15
2019-03-17T01:52:41.784Z,54.92
2019-03-17T01:55:17.829Z,55.38
2019-03-17T01:57:46.991Z,55.51
2019-03-17T02:00:16.138Z,55.45
2019-03-17T02:02:45.358Z,55.18
2019-03-17T02:05:21.936Z,55.18
2019-03-17T02:07:46.528Z,55.14
2019-03-17T02:10:15.774Z,55.07
2019-03-17T02:12:44.991Z,55.60
2019-03-17T02:15:14.215Z,55.30
2019-03-17T02:17:43.412Z,55.67
2019-03-17T02:20:12.605Z,55.45
2019-03-17T02:22:41.808Z,55.27
2019-03-17T02:25:11.004Z,55.15
2019-03-17T02:27:40.159Z,55.49
2019-03-17T02:30:09.980Z,55.57
2019-03-17T02:32:39.104Z,55.27
2019-03-17T02:35:08.379Z,55.22
2019-03-17T02:37:37.595Z,55.25
2019-03-17T02:40:06.900Z,55.23
2019-03-17T02:42:47.661Z,55.47
2019-03-17T02:45:17.252Z,53.87
2019-03-17T02:47:46.447Z,54.03
2019-03-17T02:50:15.699Z,53.89
2019-03-17T02:52:44.877Z,54.06
2019-03-17T02:55:14.111Z,54.36
2019-03-17T02:57:43.349Z,54.72
2019-03-17T03:00:13.080Z,54.83
2019-03-17T03:02:42.826Z,55.25
2019-03-17T03:05:12.045Z,55.47
2019-03-17T03:07:41.511Z,55.75
2019-03-17T03:10:10.794Z,56.60
2019-03-17T03:12:39.913Z,56.59
2019-03-17T03:15:09.530Z,56.33
2019-03-17T03:17:38.697Z,56.66
2019-03-17T03:20:08.000Z,56.76
2019-03-17T03:22:37.176Z,56.68
2019-03-17T03:25:06.389Z,56.82
2019-03-17T03:27:35.553Z,57.01
2019-03-17T03:30:05.381Z,56.67
2019-03-17T03:32:34.608Z,56.59
2019-03-17T03:35:04.269Z,56.81
2019-03-17T03:37:33.511Z,56.83
2019-03-17T03:40:02.653Z,56.63
2019-03-17T03:42:31.845Z,57.25
2019-03-17T03:45:00.996Z,56.66
2019-03-17T03:47:30.222Z,56.79
2019-03-17T03:49:59.383Z,57.23
2019-03-17T03:52:28.616Z,57.61
2019-03-17T03:54:57.744Z,58.02
2019-03-17T03:57:27.191Z,57.61
2019-03-17T03:59:56.449Z,57.41
2019-03-17T04:02:25.615Z,57.48
2019-03-17T04:04:54.790Z,57.67
2019-03-17T04:07:24.394Z,57.58
2019-03-17T04:09:53.706Z,56.86
2019-03-17T04:12:23.222Z,56.79
2019-03-17T04:14:54.604Z,56.24
2019-03-17T04:17:23.884Z,55.89
2019-03-17T04:19:53.325Z,56.36
2019-03-17T04:22:22.568Z,56.78
2019-03-17T04:24:51.768Z,56.15
2019-03-17T04:27:20.936Z,56.09
2019-03-17T04:29:50.171Z,56.24
2019-03-17T04:32:19.448Z,55.97
2019-03-17T04:34:48.659Z,55.96
2019-03-17T04:37:18.096Z,55.81
2019-03-17T04:39:47.532Z,55.85
2019-03-17T04:42:16.751Z,56.10
2019-03-17T04:44:45.933Z,56.31
2019-03-17T04:47:15.181Z,56.26
2019-03-17T04:49:47.120Z,56.58
2019-03-17T04:52:16.141Z,57.01
2019-03-17T04:54:45.504Z,57.75
2019-03-17T04:57:14.688Z,58.32
2019-03-17T04:59:44.276Z,59.24
2019-03-17T05:02:13.862Z,60.15
2019-03-17T05:04:43.394Z,60.27
2019-03-17T05:07:13.046Z,62.43
2019-03-17T05:09:42.265Z,63.82
2019-03-17T05:12:11.517Z,63.97
2019-03-17T05:14:40.740Z,65.12
2019-03-17T05:17:10.003Z,66.06
2019-03-17T05:19:39.229Z,67.06
2019-03-17T05:22:08.503Z,67.79
2019-03-17T05:24:37.688Z,67.90
2019-03-17T05:27:06.913Z,67.74
2019-03-17T05:29:40.636Z,68.31
2019-03-17T05:32:09.864Z,68.28
2019-03-17T05:34:39.132Z,68.26
2019-03-17T05:37:08.411Z,67.82
2019-03-17T05:39:37.629Z,68.26
2019-03-17T05:42:06.859Z,68.46
2019-03-17T05:44:36.033Z,68.58
2019-03-17T05:47:05.278Z,69.67
2019-03-17T05:49:36.833Z,68.26
2019-03-17T05:52:06.240Z,68.73
2019-03-17T05:54:38.545Z,70.01
2019-03-17T05:57:07.766Z,70.78
2019-03-17T05:59:37.449Z,71.33
2019-03-17T06:02:06.631Z,71.77
2019-03-17T06:04:36.133Z,72.10
2019-03-17T06:07:18.259Z,72.33
2019-03-17T06:09:40.165Z,72.30
2019-03-17T06:12:09.695Z,72.65
2019-03-17T06:14:38.882Z,73.46
2019-03-17T06:17:08.061Z,74.41
2019-03-17T06:19:37.242Z,75.10
2019-03-17T06:22:08.719Z,75.43
2019-03-17T06:24:37.935Z,74.84
2019-03-17T06:27:07.221Z,75.53
2019-03-17T06:29:36.470Z,75.03
2019-03-17T06:32:05.723Z,74.59
2019-03-17T06:34:34.994Z,75.43
2019-03-17T06:37:04.496Z,76.27
2019-03-17T06:39:33.704Z,77.81
2019-03-17T06:42:02.934Z,77.38
2019-03-17T06:44:32.100Z,79.00
2019-03-17T06:47:01.402Z,79.16
2019-03-17T06:49:30.595Z,80.35
2019-03-17T06:51:59.803Z,81.27
2019-03-17T06:54:28.967Z,81.68
2019-03-17T06:56:58.197Z,81.82
2019-03-17T06:59:27.692Z,81.67
2019-03-17T07:01:56.895Z,81.73
2019-03-17T07:04:26.142Z,82.01
2019-03-17T07:06:55.371Z,83.11
2019-03-17T07:09:27.647Z,83.05
2019-03-17T07:11:56.866Z,83.73
2019-03-17T07:14:26.060Z,83.81
2019-03-17T07:16:55.245Z,84.20
2019-03-17T07:19:28.530Z,83.93
2019-03-17T07:21:57.677Z,84.89
2019-03-17T07:24:26.844Z,84.36
2019-03-17T07:26:58.396Z,83.14
2019-03-17T07:29:27.581Z,83.51
2019-03-17T07:31:57.060Z,84.06
2019-03-17T07:34:28.074Z,83.02
2019-03-17T07:36:57.385Z,82.75
2019-03-17T07:39:26.600Z,82.09
2019-03-17T07:41:58.773Z,80.95
2019-03-17T07:44:27.962Z,80.92
2019-03-17T07:46:57.372Z,81.68
2019-03-17T07:49:50.804Z,81.11
2019-03-17T07:52:21.403Z,81.43
2019-03-17T07:54:50.889Z,80.92
2019-03-17T07:57:23.993Z,80.68
2019-03-17T07:59:56.100Z,80.91
2019-03-17T08:02:25.369Z,80.55
2019-03-17T08:04:54.562Z,81.73
2019-03-17T08:07:24.257Z,78.52
2019-03-17T08:09:53.410Z,77.91
2019-03-17T08:12:22.699Z,78.90
2019-03-17T08:14:51.893Z,79.18
2019-03-17T08:17:21.370Z,79.98
2019-03-17T08:19:50.569Z,81.04
2019-03-17T08:22:19.760Z,80.35
2019-03-17T08:24:48.976Z,80.87
2019-03-17T08:27:18.123Z,79.36
2019-03-17T08:29:47.360Z,78.07
2019-03-17T08:32:16.516Z,78.50
2019-03-17T08:34:45.851Z,79.61
2019-03-17T08:37:17.316Z,79.31
2019-03-17T08:39:46.881Z,78.55
2019-03-17T08:42:16.268Z,78.51
2019-03-17T08:44:45.563Z,78.16
2019-03-17T08:47:14.875Z,77.45
2019-03-17T08:49:44.018Z,79.12
2019-03-17T08:52:11.685Z,78.65
2019-03-17T08:54:40.801Z,79.09
2019-03-17T08:57:10.089Z,77.80
2019-03-17T08:59:39.236Z,77.69
2019-03-17T09:02:08.726Z,77.90
2019-03-17T09:04:38.057Z,77.43
2019-03-17T09:07:07.607Z,76.75
2019-03-17T09:09:38.913Z,76.31
2019-03-17T09:12:08.173Z,74.60
2019-03-17T09:14:37.447Z,72.40
2019-03-17T09:17:14.281Z,72.42
2019-03-17T09:19:37.904Z,72.30
2019-03-17T09:22:07.216Z,71.11
2019-03-17T09:24:36.545Z,68.06
2019-03-17T09:27:05.873Z,69.12
2019-03-17T09:29:35.151Z,68.63
2019-03-17T09:32:04.425Z,68.34
2019-03-17T09:34:33.632Z,67.46
2019-03-17T09:37:03.264Z,67.99
2019-03-17T09:39:35.039Z,65.84
2019-03-17T09:42:05.193Z,65.91
2019-03-17T09:44:34.367Z,65.19
2019-03-17T09:47:03.626Z,64.52
2019-03-17T09:49:33.072Z,65.14
2019-03-17T09:52:02.595Z,65.10
2019-03-17T09:54:31.855Z,63.81
2019-03-17T09:57:03.909Z,63.26
2019-03-17T09:59:33.093Z,61.07
2019-03-17T10:02:02.609Z,60.43
2019-03-17T10:04:34.111Z,60.42
2019-03-17T10:07:03.668Z,61.14
2019-03-17T10:09:33.816Z,60.00
2019-03-17T10:12:03.139Z,58.86
2019-03-17T10:14:32.474Z,59.22
2019-03-17T10:17:02.008Z,58.60
2019-03-17T10:19:34.800Z,58.38
2019-03-17T10:22:04.065Z,58.50
2019-03-17T10:24:33.292Z,57.72
2019-03-17T10:27:02.630Z,55.70
2019-03-17T10:29:31.784Z,54.85
2019-03-17T10:32:00.945Z,54.48
2019-03-17T10:34:30.165Z,53.91
2019-03-17T10:36:59.390Z,55.00
2019-03-17T10:39:28.547Z,54.50
2019-03-17T10:41:57.728Z,53.99
2019-03-17T10:44:27.019Z,54.06
2019-03-17T10:46:56.324Z,54.11
2019-03-17T10:49:28.410Z,53.89
2019-03-17T10:51:57.839Z,53.24
2019-03-17T10:54:27.291Z,53.93
2019-03-17T10:56:56.589Z,53.64
2019-03-17T10:59:27.685Z,54.90
2019-03-17T11:01:56.849Z,53.08
2019-03-17T11:04:26.131Z,53.21
2019-03-17T11:06:55.826Z,52.66
2019-03-17T11:09:25.929Z,51.48
2019-03-17T11:11:55.182Z,51.80
2019-03-17T11:14:24.471Z,51.15
2019-03-17T11:16:53.744Z,48.97
2019-03-17T11:19:25.549Z,49.88
2019-03-17T11:21:54.217Z,48.45
2019-03-17T11:24:23.455Z,47.78
2019-03-17T11:26:55.601Z,46.74
2019-03-17T11:29:23.948Z,46.43
2019-03-17T11:31:54.637Z,46.12
2019-03-17T11:34:23.852Z,45.69
2019-03-17T11:36:53.205Z,44.93
2019-03-17T11:39:23.432Z,48.23
2019-03-17T11:41:53.591Z,50.33
2019-03-17T11:44:23.779Z,51.52
2019-03-17T11:46:53.910Z,52.64
2019-03-17T11:49:23.455Z,53.44
2019-03-17T11:51:53.248Z,54.02
2019-03-17T11:54:24.305Z,54.15
2019-03-17T11:56:53.529Z,54.56
2019-03-17T11:59:23.572Z,54.04
2019-03-17T12:01:52.936Z,54.38
2019-03-17T12:04:22.192Z,54.34
2019-03-17T12:06:53.466Z,53.72
2019-03-17T12:09:29.074Z,52.68
2019-03-17T12:11:53.753Z,51.95
2019-03-17T12:14:22.996Z,52.07
2019-03-17T12:16:52.303Z,50.79
2019-03-17T12:19:21.459Z,51.22
2019-03-17T12:21:50.652Z,50.67
2019-03-17T12:24:19.845Z,50.52
2019-03-17T12:26:49.064Z,49.98
2019-03-17T12:29:18.354Z,49.76
2019-03-17T12:31:47.584Z,50.10
2019-03-17T12:34:27.819Z,49.04
2019-03-17T12:36:47.691Z,45.73
2019-03-17T12:39:17.147Z,45.45
2019-03-17T12:41:46.735Z,44.28
2019-03-17T12:44:19.106Z,45.64
2019-03-17T12:46:48.406Z,47.53
2019-03-17T12:49:17.612Z,48.86
2019-03-17T12:51:46.860Z,49.51
2019-03-17T12:54:16.028Z,49.85
2019-03-17T12:56:45.216Z,48.79
2019-03-17T12:59:14.585Z,47.38
2019-03-17T13:01:43.849Z,45.18
2019-03-17T13:04:13.024Z,43.96
2019-03-17T13:06:42.256Z,43.22
2019-03-17T13:09:11.673Z,40.71
2019-03-17T13:11:40.818Z,40.67
2019-03-17T13:14:12.422Z,41.45
2019-03-17T13:16:41.660Z,42.30
2019-03-17T13:19:10.903Z,43.42
2019-03-17T13:21:40.105Z,45.05
2019-03-17T13:24:09.255Z,45.72
2019-03-17T13:26:38.597Z,46.33
2019-03-17T13:29:07.800Z,47.02
2019-03-17T13:31:37.263Z,47.99
2019-03-17T13:34:06.504Z,47.76
2019-03-17T13:36:35.732Z,47.47
2019-03-17T13:39:07.028Z,46.91
2019-03-17T13:41:36.249Z,47.42
2019-03-17T13:44:05.415Z,42.23
2019-03-17T13:46:34.904Z,40.93
2019-03-17T13:49:04.095Z,41.10
2019-03-17T13:51:33.334Z,40.73
2019-03-17T13:54:02.519Z,40.18
2019-03-17T13:56:31.709Z,40.25
2019-03-17T13:59:06.223Z,41.57
2019-03-17T14:01:34.250Z,42.95
2019-03-17T14:04:03.476Z,44.47
2019-03-17T14:06:33.578Z,44.24
2019-03-17T14:09:04.496Z,43.71
2019-03-17T14:11:34.066Z,43.18
2019-03-17T14:14:03.297Z,42.94
2019-03-17T14:16:32.459Z,41.07
2019-03-17T14:19:01.665Z,40.41
2019-03-17T14:21:30.869Z,39.53
2019-03-17T14:24:00.043Z,39.22
2019-03-17T14:26:29.216Z,39.23
2019-03-17T14:28:58.418Z,36.59
2019-03-17T14:31:27.601Z,37.93
2019-03-17T14:33:57.020Z,37.88
2019-03-17T14:36:26.236Z,39.63
2019-03-17T14:38:55.410Z,38.39
2019-03-17T14:41:24.642Z,39.29
2019-03-17T14:43:53.880Z,40.57
2019-03-17T14:46:25.157Z,41.39
2019-03-17T14:48:54.427Z,42.42
2019-03-17T14:51:23.681Z,43.18
2019-03-17T14:53:52.804Z,43.91
2019-03-17T14:56:22.093Z,44.40
2019-03-17T14:58:51.515Z,45.35
2019-03-17T15:01:20.750Z,45.69
2019-03-17T15:03:50.711Z,46.35
2019-03-17T15:06:20.051Z,46.83
2019-03-17T15:08:49.277Z,47.36
2019-03-17T15:11:18.518Z,48.40
2019-03-17T15:13:47.951Z,48.81
2019-03-17T15:16:19.530Z,52.82
2019-03-17T15:18:48.769Z,56.64
2019-03-17T15:21:17.997Z,60.34
2019-03-17T15:23:47.312Z,58.82
2019-03-17T15:26:19.518Z,59.19
2019-03-17T15:28:49.000Z,58.46
2019-03-17T15:31:18.301Z,57.75
2019-03-17T15:36:13.172Z,54.68
2019-03-17T15:38:42.445Z,59.32
2019-03-17T15:41:18.367Z,62.34
2019-03-17T15:43:42.671Z,70.02
2019-03-17T15:46:11.848Z,70.95
2019-03-17T15:48:41.146Z,71.44
2019-03-17T15:51:19.648Z,74.54
2019-03-17T15:53:42.156Z,74.92
2019-03-17T15:56:11.420Z,78.13
2019-03-17T15:58:43.112Z,78.34
2019-03-17T16:01:15.038Z,77.96
2019-03-17T16:03:42.593Z,79.31
2019-03-17T16:06:11.822Z,77.72
2019-03-17T16:08:40.957Z,77.45
2019-03-17T16:11:10.212Z,77.21
2019-03-17T16:13:39.439Z,75.94
2019-03-17T16:16:08.935Z,76.79
2019-03-17T16:18:38.678Z,73.68
2019-03-17T16:21:09.042Z,73.89
2019-03-17T16:23:38.629Z,74.83
2019-03-17T16:26:08.322Z,73.30
2019-03-17T16:28:37.781Z,74.11
2019-03-17T16:31:07.082Z,73.61
2019-03-17T16:33:36.275Z,74.62
2019-03-17T16:36:05.707Z,72.65
2019-03-17T16:38:35.247Z,70.46
2019-03-17T16:41:04.462Z,71.12
2019-03-17T16:43:33.679Z,68.77
2019-03-17T16:46:03.002Z,69.92
2019-03-17T16:48:32.164Z,68.96
2019-03-17T16:51:01.492Z,68.02
2019-03-17T16:53:30.801Z,66.52
2019-03-17T16:56:00.116Z,66.30
2019-03-17T16:58:29.301Z,66.54
2019-03-17T17:01:01.720Z,67.67
2019-03-17T17:03:31.033Z,64.31
2019-03-17T17:06:00.283Z,64.71
2019-03-17T17:08:29.481Z,65.36
2019-03-17T17:11:00.599Z,64.34
2019-03-17T17:13:29.580Z,65.22
2019-03-17T17:15:58.818Z,63.22
2019-03-17T17:18:28.961Z,63.49
2019-03-17T17:20:58.178Z,63.38
2019-03-17T17:23:27.431Z,63.58
2019-03-17T17:25:56.699Z,63.93
2019-03-17T17:28:26.005Z,62.12
2019-03-17T17:30:55.308Z,62.17
2019-03-17T17:33:24.435Z,63.17
2019-03-17T17:35:53.656Z,62.17
2019-03-17T17:38:22.941Z,60.68
2019-03-17T17:40:52.092Z,61.83
2019-03-17T17:43:21.280Z,62.25
2019-03-17T17:45:50.499Z,61.14
2019-03-17T17:48:19.693Z,61.59
2019-03-17T17:50:48.915Z,60.00
2019-03-17T17:53:18.131Z,60.11
2019-03-17T17:55:47.356Z,59.88
2019-03-17T17:58:16.514Z,61.26
2019-03-17T18:00:46.317Z,61.35
2019-03-17T18:03:18.342Z,60.62
2019-03-17T18:05:48.538Z,61.06
2019-03-17T18:08:18.181Z,64.71
2019-03-17T18:10:48.642Z,67.31
2019-03-17T18:13:17.900Z,72.07
2019-03-17T18:18:16.285Z,74.12
2019-03-17T18:20:45.622Z,75.73
2019-03-17T18:23:18.123Z,75.56
2019-03-17T18:25:45.874Z,73.41
2019-03-17T18:28:15.076Z,72.62
2019-03-17T18:30:44.438Z,71.44
2019-03-17T18:33:13.628Z,72.70
2019-03-17T18:35:42.867Z,72.49
2019-03-17T18:38:12.068Z,72.34
2019-03-17T18:40:42.327Z,71.24
2019-03-17T18:43:11.773Z,67.10
2019-03-17T18:45:42.675Z,67.92
2019-03-17T18:48:12.377Z,66.12
2019-03-17T18:50:42.062Z,64.64
2019-03-17T18:53:11.271Z,66.50
2019-03-17T18:55:40.528Z,62.39
2019-03-17T18:58:09.760Z,63.79
2019-03-17T19:00:39.946Z,62.60
2019-03-17T19:03:09.146Z,63.56
2019-03-17T19:05:38.348Z,64.27
2019-03-17T19:08:07.666Z,64.76
2019-03-17T19:10:36.837Z,66.04
2019-03-17T19:13:06.203Z,65.74
2019-03-17T19:15:35.643Z,66.75
2019-03-17T19:18:04.925Z,67.24
2019-03-17T19:20:34.174Z,67.96
2019-03-17T19:23:05.213Z,67.94
2019-03-17T19:25:34.397Z,68.86
2019-03-17T19:28:04.385Z,68.67
2019-03-17T19:30:33.603Z,69.43
2019-03-17T19:33:03.062Z,69.27
2019-03-17T19:35:32.361Z,70.15
2019-03-17T19:38:01.580Z,69.57
2019-03-17T19:40:31.564Z,70.14
2019-03-17T19:43:00.761Z,70.58
2019-03-17T19:45:29.983Z,70.88
2019-03-17T19:47:59.130Z,71.07
2019-03-17T19:50:28.357Z,71.51
2019-03-17T19:52:57.670Z,71.56
2019-03-17T19:55:26.986Z,71.89
2019-03-17T19:57:56.099Z,71.47
2019-03-17T20:00:25.372Z,72.40
2019-03-17T20:02:54.563Z,72.50
2019-03-17T20:05:23.944Z,72.85
2019-03-17T20:07:55.153Z,72.29
2019-03-17T20:10:24.901Z,72.13
2019-03-17T20:12:54.110Z,72.67
2019-03-17T20:15:23.359Z,72.63
2019-03-17T20:20:21.745Z,73.13
2019-03-17T20:22:50.914Z,73.22
2019-03-17T20:25:20.148Z,73.73
2019-03-17T20:27:49.303Z,73.23
2019-03-17T20:30:18.483Z,73.60
2019-03-17T20:32:47.830Z,73.73
2019-03-17T20:35:20.161Z,72.15
2019-03-17T20:37:49.434Z,71.87
2019-03-17T20:40:18.783Z,71.77
2019-03-17T20:42:48.035Z,71.78
2019-03-17T20:45:20.160Z,71.99
2019-03-17T20:47:48.344Z,71.47
2019-03-17T20:50:17.666Z,71.65
2019-03-17T20:52:47.368Z,71.52
2019-03-17T20:55:16.630Z,71.49
2019-03-17T20:57:45.863Z,70.91
2019-03-17T21:00:15.314Z,70.93
2019-03-17T21:02:44.588Z,71.28
2019-03-17T21:05:14.164Z,70.54
2019-03-17T21:07:45.012Z,70.90
2019-03-17T21:10:14.365Z,71.99
2019-03-17T21:12:43.653Z,70.79
2019-03-17T21:15:13.691Z,69.65
2019-03-17T21:17:42.914Z,70.08
2019-03-17T21:20:13.473Z,69.49
2019-03-17T21:22:42.698Z,69.59
2019-03-17T21:25:12.307Z,70.26
2019-03-17T21:27:42.346Z,69.45
2019-03-17T21:30:14.576Z,69.52
2019-03-17T21:32:43.844Z,70.64
2019-03-17T21:35:13.003Z,68.45
2019-03-17T21:37:42.173Z,68.62
2019-03-17T21:40:11.532Z,68.62
2019-03-17T21:42:40.762Z,70.24
2019-03-17T21:45:10.264Z,71.37
2019-03-17T21:47:39.559Z,71.20
2019-03-17T21:50:11.354Z,71.75
2019-03-17T21:52:40.973Z,72.46
2019-03-17T21:55:12.709Z,72.58
2019-03-17T21:57:42.251Z,71.88
2019-03-17T22:00:13.913Z,72.88
2019-03-17T22:02:43.577Z,72.76
2019-03-17T22:05:13.948Z,72.44
2019-03-17T22:07:49.557Z,71.30
2019-03-17T22:10:15.128Z,71.91
2019-03-17T22:12:44.350Z,71.60
2019-03-17T22:15:13.463Z,71.50
2019-03-17T22:17:42.638Z,71.19
2019-03-17T22:20:11.897Z,71.29
2019-03-17T22:22:41.335Z,71.59
2019-03-17T22:25:10.635Z,71.31
2019-03-17T22:27:39.793Z,71.98
2019-03-17T22:30:25.036Z,72.01
2019-03-17T22:33:13.990Z,72.20
2019-03-17T22:36:02.282Z,72.85
2019-03-17T22:38:49.746Z,71.86
2019-03-17T22:41:35.603Z,72.70
2019-03-17T22:44:25.042Z,72.62
2019-03-17T22:47:09.006Z,72.54
2019-03-17T22:49:38.409Z,73.03
2019-03-17T22:52:27.689Z,72.67
2019-03-17T22:55:18.195Z,72.76
2019-03-17T22:58:03.900Z,72.66
2019-03-17T23:00:52.970Z,72.37
2019-03-17T23:03:42.009Z,72.52
2019-03-17T23:06:25.591Z,72.32
2019-03-17T23:09:14.125Z,71.97
2019-03-17T23:12:04.770Z,72.22
2019-03-17T23:14:45.661Z,72.29
2019-03-17T23:17:33.095Z,72.06
2019-03-17T23:20:17.343Z,71.90
2019-03-17T23:23:10.910Z,71.69
2019-03-17T23:26:01.558Z,72.47
2019-03-17T23:28:48.454Z,71.91
2019-03-17T23:31:35.348Z,71.98
2019-03-17T23:34:21.471Z,72.02
2019-03-17T23:37:08.236Z,71.94
2019-03-17T23:39:37.355Z,72.42
2019-03-17T23:42:22.764Z,72.77
2019-03-17T23:45:10.454Z,72.55
2019-03-17T23:48:06.323Z,73.02
2019-03-17T23:50:53.532Z,72.60
2019-03-17T23:53:45.675Z,73.27
2019-03-17T23:56:47.376Z,72.60
2019-03-17T23:59:20.204Z,72.14
